Time;durP1;ratioP1;P1;durP2;ratioP2;P2;SDS_P1;SDS_P2;PMS_P1;PMS_P2;Temp;Humidity;BMP_temperature;BMP_pressure;BME280_temperature;BME280_humidity;BME280_pressure;Samples;Min_cycle;Max_cycle;Signal;HPM_P1;HPM_P2
2022/12/03 00:09:28;;;;;;;39.40;23.70;;;;;;;-4.06;94.90;100510.09;435633;1281;143869;-66
2022/12/03 00:19:34;;;;;;;31.90;23.60;;;;;;;-4.06;94.96;100508.56;430199;1283;141516;-67
2022/12/03 00:29:40;;;;;;;41.80;22.70;;;;;;;-4.06;95.05;100511.97;436355;1281;144316;-67
2022/12/03 00:39:44;;;;;;;;;;;;;;;-4.10;95.20;100509.19;431609;1282;197043;-66
2022/12/03 00:49:50;;;;;;;38.90;24.80;;;;;;;-4.11;95.41;100506.61;436546;1282;128796;-65
2022/12/03 00:59:56;;;;;;;39.00;24.20;;;;;;;-4.11;95.62;100503.03;433774;1280;142778;-66
2022/12/03 01:10:01;;;;;;;41.70;23.90;;;;;;;-4.13;95.75;100499.41;436353;1275;142770;-66
2022/12/03 01:20:09;;;;;;;40.10;26.30;;;;;;;-4.12;95.85;100491.73;424245;1288;142453;-65
2022/12/03 01:30:16;;;;;;;37.90;22.70;;;;;;;-4.09;95.84;100491.94;435635;1276;199149;-65
2022/12/03 01:40:22;;;;;;;44.40;24.90;;;;;;;-4.05;95.79;100494.88;423871;1283;142639;-66
2022/12/03 01:50:33;;;;;;;46.00;26.00;;;;;;;-3.99;95.83;100497.16;420849;1281;193411;-66
2022/12/03 02:00:39;;;;;;;49.20;28.10;;;;;;;-4.01;95.98;100490.30;418677;1285;141853;-66
2022/12/03 02:10:45;;;;;;;46.60;27.80;;;;;;;-4.06;96.13;100487.50;419871;1281;144143;-65
2022/12/03 02:20:53;;;;;;;;;;;;;;;-4.01;96.19;100479.70;434179;1287;142558;-67
2022/12/03 02:30:59;;;;;;;49.70;27.90;;;;;;;-3.93;96.03;100477.23;424857;1281;129072;-66
2022/12/03 02:41:08;;;;;;;42.30;27.10;;;;;;;-3.89;96.01;100479.13;436551;1286;142898;-66
2022/12/03 02:51:13;;;;;;;47.00;28.40;;;;;;;-3.82;95.97;100472.36;435798;1282;143031;-67
2022/12/03 03:01:19;;;;;;;42.80;25.80;;;;;;;-3.78;95.90;100473.06;436480;1289;142834;-66
2022/12/03 03:11:25;;;;;;;44.70;26.60;;;;;;;-3.78;95.87;100469.30;436526;1282;142381;-66
2022/12/03 03:21:29;;;;;;;;;;;;;;;-3.74;95.98;100465.40;435773;1282;143016;-66
2022/12/03 03:31:36;;;;;;;43.50;26.50;;;;;;;-3.67;95.79;100467.02;436681;1280;128563;-67
2022/12/03 03:41:44;;;;;;;47.80;26.00;;;;;;;-3.63;95.84;100460.71;436505;1282;144298;-67
2022/12/03 03:51:50;;;;;;;42.10;23.80;;;;;;;-3.58;95.81;100458.35;436069;1289;197372;-66
2022/12/03 04:01:56;;;;;;;42.30;24.80;;;;;;;-3.57;95.76;100448.42;436551;1280;142737;-66
2022/12/03 04:22:40;;;;;;;43.90;26.10;;;;;;;-3.59;95.87;100444.14;436516;1284;144659;-66
2022/12/03 04:43:08;;;;;;;36.00;23.00;;;;;;;-3.54;96.04;100442.63;436463;1282;142681;-66
2022/12/03 04:53:14;;;;;;;38.40;26.20;;;;;;;-3.48;96.05;100440.27;429013;1282;145620;-66
2022/12/03 05:03:20;;;;;;;42.60;24.60;;;;;;;-3.43;96.07;100436.04;435714;1288;142849;-66
2022/12/03 05:13:25;;;;;;;37.90;26.00;;;;;;;-3.38;95.95;100426.66;436513;1281;143838;-66
2022/12/03 05:23:31;;;;;;;34.60;22.90;;;;;;;-3.36;95.80;100420.50;436494;1274;143458;-66
2022/12/03 05:33:37;;;;;;;37.20;25.00;;;;;;;-3.33;95.73;100422.06;432828;1281;142710;-66
2022/12/03 05:43:48;;;;;;;41.50;24.70;;;;;;;-3.30;95.68;100431.33;436529;1281;144404;-66
2022/12/03 05:53:54;;;;;;;31.40;19.20;;;;;;;-3.28;95.53;100430.65;435823;1282;142526;-66
2022/12/03 06:04:00;;;;;;;40.20;26.10;;;;;;;-3.23;95.80;100427.77;436650;1287;142783;-67
2022/12/03 06:14:05;;;;;;;44.00;28.70;;;;;;;-3.21;95.71;100428.99;436835;1281;143832;-66
2022/12/03 06:24:11;;;;;;;45.60;27.50;;;;;;;-3.23;95.66;100432.40;436109;1281;143426;-67
2022/12/03 06:34:17;;;;;;;39.80;26.30;;;;;;;-3.25;95.75;100433.08;436812;1285;143359;-67
2022/12/03 06:44:22;;;;;;;40.90;27.20;;;;;;;-3.24;95.73;100430.86;436896;1281;142763;-66
2022/12/03 06:54:28;;;;;;;42.10;27.20;;;;;;;-3.21;95.94;100431.90;436150;1282;142228;-66
2022/12/03 07:04:34;;;;;;;41.90;27.90;;;;;;;-3.20;95.91;100436.19;429568;1275;142600;-65
2022/12/03 07:14:39;;;;;;;40.80;25.90;;;;;;;-3.16;96.09;100429.88;434905;1282;147918;-67
2022/12/03 07:24:45;;;;;;;39.70;24.40;;;;;;;-3.05;96.33;100425.83;436346;1285;198374;-65
2022/12/03 07:34:51;;;;;;;48.60;29.20;;;;;;;-2.88;96.23;100416.83;428504;1275;147005;-66
2022/12/03 07:44:57;;;;;;;38.70;24.00;;;;;;;-2.63;96.34;100412.47;436131;1287;143027;-65
2022/12/03 07:55:03;;;;;;;40.60;25.30;;;;;;;-2.32;95.83;100414.61;436836;1279;143188;-66
2022/12/03 08:05:10;;;;;;;36.50;23.20;;;;;;;-2.16;95.34;100409.48;436847;1281;142977;-66
2022/12/03 08:15:17;;;;;;;39.40;27.10;;;;;;;-2.08;94.92;100419.45;436126;1281;142221;-66
2022/12/03 08:25:25;;;;;;;37.70;24.10;;;;;;;-2.01;94.63;100420.66;423617;1275;142523;-66
2022/12/03 08:35:32;;;;;;;40.70;24.80;;;;;;;-1.75;94.83;100416.38;436765;1275;141564;-66
2022/12/03 08:45:41;;;;;;;39.10;25.50;;;;;;;-1.26;94.34;100422.17;436159;1282;143055;-66
2022/12/03 08:55:50;;;;;;;40.30;25.10;;;;;;;-1.01;93.90;100422.29;436858;1274;154780;-65
2022/12/03 09:05:56;;;;;;;35.90;24.00;;;;;;;-1.05;93.20;100429.51;435295;1280;143334;-66
2022/12/03 09:16:01;;;;;;;38.20;25.40;;;;;;;-1.06;92.98;100428.14;427143;1282;142641;-65
2022/12/03 09:26:07;;;;;;;43.60;28.20;;;;;;;-0.91;92.71;100411.61;436110;1281;142954;-66
2022/12/03 09:36:13;;;;;;;36.90;24.90;;;;;;;-0.76;92.48;100398.47;427032;1275;142586;-65
2022/12/03 09:46:20;;;;;;;38.20;26.50;;;;;;;-0.57;91.96;100390.81;436715;1281;142473;-66
2022/12/03 09:56:25;;;;;;;45.00;27.30;;;;;;;-0.52;91.71;100387.00;423541;1275;141738;-67
2022/12/03 10:06:31;;;;;;;41.80;25.50;;;;;;;-0.34;91.61;100381.40;422988;1275;144408;-67
2022/12/03 10:16:39;;;;;;;40.60;27.00;;;;;;;-0.18;91.12;100374.91;436832;1275;144121;-65
2022/12/03 10:26:47;;;;;;;40.80;25.70;;;;;;;-0.27;90.58;100377.91;427540;1275;144717;-65
2022/12/03 10:37:11;;;;;;;40.70;26.70;;;;;;;-0.35;90.54;100385.36;420606;1275;143081;-65
2022/12/03 10:47:17;;;;;;;41.50;29.60;;;;;;;-0.62;90.70;100389.30;434295;1280;144634;-66
2022/12/03 10:57:24;;;;;;;39.90;25.70;;;;;;;-0.96;91.03;100388.92;435512;1280;143826;-66
2022/12/03 11:07:30;;;;;;;48.60;30.50;;;;;;;-1.01;91.60;100387.23;434075;1281;141724;-66
2022/12/03 11:17:48;;;;;;;41.30;28.50;;;;;;;-0.85;91.67;100370.33;435255;1275;142331;-65
2022/12/03 11:28:25;;;;;;;38.20;24.90;;;;;;;-0.85;91.79;100371.35;436327;1281;196491;-67
2022/12/03 11:38:49;;;;;;;44.00;27.60;;;;;;;-0.95;91.87;100369.67;436775;1281;143242;-66
2022/12/03 11:49:00;;;;;;;46.70;27.80;;;;;;;-1.00;91.96;100358.70;434098;1281;211798;-66
2022/12/03 11:59:13;;;;;;;46.20;28.90;;;;;;;-1.09;91.95;100348.23;436666;1280;141969;-65
2022/12/03 12:09:53;;;;;;;41.20;27.30;;;;;;;-1.12;92.39;100340.70;425915;1281;142952;-66
2022/12/03 12:20:22;;;;;;;45.80;29.90;;;;;;;-1.08;92.48;100344.98;428464;1275;142391;-66
2022/12/03 12:30:28;;;;;;;44.90;28.50;;;;;;;-1.31;92.62;100347.98;435969;1280;188244;-65
2022/12/03 12:40:35;;;;;;;44.70;29.10;;;;;;;-1.38;93.14;100358.30;423710;1282;142871;-66
2022/12/03 12:50:42;;;;;;;45.60;30.40;;;;;;;-1.45;93.46;100353.34;432787;1278;143884;-65
2022/12/03 13:00:51;;;;;;;47.20;31.40;;;;;;;-1.54;93.63;100349.56;432951;1278;142979;-66
2022/12/03 13:10:58;;;;;;;48.70;30.60;;;;;;;-1.59;93.70;100345.29;429533;1274;142804;-65
2022/12/03 13:21:29;;;;;;;48.20;31.20;;;;;;;-1.59;94.36;100346.67;436056;1272;142988;-65
2022/12/03 13:31:37;;;;;;;45.30;27.50;;;;;;;-1.56;94.39;100346.48;436502;1280;142173;-65
2022/12/03 13:52:19;;;;;;;46.00;28.80;;;;;;;-1.60;94.83;100355.41;436586;1278;142457;-66
2022/12/03 14:02:24;;;;;;;48.90;31.00;;;;;;;-1.64;94.93;100353.71;436584;1283;142721;-65
2022/12/03 14:12:32;;;;;;;48.10;31.00;;;;;;;-1.64;95.42;100363.66;432024;1274;142337;-65
2022/12/03 14:22:38;;;;;;;49.00;30.30;;;;;;;-1.61;95.76;100363.84;436388;1282;142833;-66
2022/12/03 14:32:44;;;;;;;53.20;33.60;;;;;;;-1.61;96.01;100354.91;434876;1281;144423;-66
2022/12/03 14:42:50;;;;;;;57.50;34.20;;;;;;;-1.60;96.36;100323.48;436453;1272;210493;-66
2022/12/03 14:52:56;;;;;;;55.40;31.80;;;;;;;-1.55;96.67;100312.65;436665;1281;141995;-66
2022/12/03 15:03:01;;;;;;;53.50;31.40;;;;;;;-1.54;96.92;100321.94;435982;1280;144569;-66
2022/12/03 15:13:07;;;;;;;60.30;34.90;;;;;;;-1.56;97.21;100325.53;436657;1281;143512;-66
2022/12/03 15:23:13;;;;;;;66.80;37.00;;;;;;;-1.54;97.59;100327.27;436723;1281;142666;-65
2022/12/03 15:33:19;;;;;;;73.80;41.70;;;;;;;-1.53;97.60;100334.45;432253;1281;143622;-65
2022/12/03 15:43:25;;;;;;;76.30;41.50;;;;;;;-1.53;97.85;100320.38;420696;1275;143659;-66
2022/12/03 15:53:31;;;;;;;80.20;41.00;;;;;;;-1.55;98.10;100332.92;429612;1281;142493;-65
2022/12/03 16:03:37;;;;;;;65.50;32.80;;;;;;;-1.55;98.53;100354.38;427985;1283;142447;-65
2022/12/03 16:13:42;;;;;;;69.00;34.80;;;;;;;-1.52;98.83;100362.11;423253;1281;142136;-65
2022/12/03 16:23:48;;;;;;;73.90;39.20;;;;;;;-1.51;98.98;100365.19;434747;1282;143150;-64
2022/12/03 16:33:54;;;;;;;75.30;40.20;;;;;;;-1.49;99.43;100358.15;436745;1278;143059;-65
2022/12/03 16:44:01;;;;;;;72.40;35.90;;;;;;;-1.43;99.54;100349.90;436706;1281;141761;-65
2022/12/03 16:54:07;;;;;;;75.90;40.00;;;;;;;-1.37;99.86;100345.41;435888;1282;142548;-66
2022/12/03 17:04:12;;;;;;;83.80;39.30;;;;;;;-1.35;99.96;100345.75;433347;1288;142496;-66
2022/12/03 17:14:18;;;;;;;72.70;36.30;;;;;;;-1.35;99.91;100344.04;436585;1287;143564;-65
2022/12/03 17:24:24;;;;;;;72.10;37.20;;;;;;;-1.31;99.99;100345.39;436010;1281;141834;-66
2022/12/03 17:34:29;;;;;;;82.70;40.10;;;;;;;-1.29;100.00;100351.57;436623;1286;142603;-66
2022/12/03 17:44:36;;;;;;;88.30;37.70;;;;;;;-1.28;100.00;100337.98;429620;1281;142604;-66
2022/12/03 17:54:41;;;;;;;86.00;42.70;;;;;;;-1.29;100.00;100328.04;435936;1282;143760;-66
2022/12/03 18:05:08;;;;;;;94.20;40.80;;;;;;;-1.26;100.00;100355.01;436714;1281;143563;-66
2022/12/03 18:15:13;;;;;;;81.00;41.10;;;;;;;-1.22;100.00;100324.05;435951;1281;143573;-66
2022/12/03 18:25:20;;;;;;;84.40;38.30;;;;;;;-1.21;100.00;100334.89;435401;1283;142599;-66
2022/12/03 18:35:26;;;;;;;87.10;38.80;;;;;;;-1.20;100.00;100325.77;436509;1280;143438;-66
2022/12/03 18:45:31;;;;;;;79.10;38.10;;;;;;;-1.17;100.00;100322.67;427493;1274;144215;-65
2022/12/03 18:55:37;;;;;;;86.90;41.70;;;;;;;-1.15;100.00;100318.02;422565;1282;143267;-66
2022/12/03 19:05:43;;;;;;;72.70;36.20;;;;;;;-1.17;100.00;100317.86;436627;1287;143647;-66
2022/12/03 19:15:49;;;;;;;;;;;;;;;-1.17;100.00;100312.02;436174;1287;200302;-66
2022/12/03 19:26:00;;;;;;;94.90;43.00;;;;;;;-1.10;100.00;100318.00;436944;1287;130329;-65
2022/12/03 19:36:17;;;;;;;87.10;39.30;;;;;;;-1.08;100.00;100327.95;420582;1283;144044;-64
2022/12/03 19:46:24;;;;;;;79.80;36.90;;;;;;;-1.07;100.00;100318.85;436508;1280;142914;-65
2022/12/03 19:56:30;;;;;;;81.80;40.90;;;;;;;-1.05;100.00;100310.77;436632;1274;142672;-65
2022/12/03 20:06:38;;;;;;;85.80;40.10;;;;;;;-1.01;100.00;100306.96;430600;1276;144571;-65
2022/12/03 20:16:44;;;;;;;75.30;37.80;;;;;;;-0.99;100.00;100300.58;428384;1289;142988;-65
2022/12/03 20:26:49;;;;;;;;;;;;;;;-0.96;100.00;100300.23;428280;1286;143652;-64
2022/12/03 20:36:54;;;;;;;77.10;39.60;;;;;;;-0.93;100.00;100304.86;421961;1282;128875;-64
2022/12/03 20:47:00;;;;;;;78.50;40.10;;;;;;;-0.92;100.00;100302.63;434868;1280;144561;-65
2022/12/03 20:57:06;;;;;;;81.50;37.20;;;;;;;-0.90;100.00;100296.94;435948;1281;143185;-65
2022/12/03 21:07:11;;;;;;;76.70;36.80;;;;;;;-0.87;100.00;100299.67;436687;1282;143396;-64
2022/12/03 21:17:17;;;;;;;76.70;37.20;;;;;;;-0.81;100.00;100298.08;436731;1275;144512;-65
2022/12/03 21:27:23;;;;;;;70.90;36.90;;;;;;;-0.77;100.00;100293.24;435924;1280;142801;-64
2022/12/03 21:37:29;;;;;;;63.80;34.00;;;;;;;-0.73;100.00;100289.80;434175;1279;144991;-65
2022/12/03 21:47:35;;;;;;;55.70;31.20;;;;;;;-0.68;100.00;100276.86;424699;1282;142880;-66
2022/12/03 21:57:42;;;;;;;59.60;32.80;;;;;;;-0.63;100.00;100274.25;436047;1281;143372;-65
2022/12/03 22:07:48;;;;;;;57.30;31.30;;;;;;;-0.55;100.00;100270.93;428165;1278;143042;-66
2022/12/03 22:17:54;;;;;;;63.90;33.20;;;;;;;-0.52;100.00;100262.64;435819;1280;144114;-65
2022/12/03 22:27:59;;;;;;;58.20;31.00;;;;;;;-0.45;100.00;100262.95;436615;1281;141980;-66
2022/12/03 22:38:05;;;;;;;58.00;31.30;;;;;;;-0.40;100.00;100256.70;425345;1282;143804;-67
2022/12/03 22:48:11;;;;;;;61.70;35.60;;;;;;;-0.38;100.00;100253.26;434906;1281;199185;-65
2022/12/03 22:58:17;;;;;;;63.40;33.40;;;;;;;-0.35;100.00;100259.93;432004;1274;142460;-66
2022/12/03 23:08:23;;;;;;;57.80;35.00;;;;;;;-0.32;100.00;100244.06;436672;1288;141958;-65
2022/12/03 23:18:29;;;;;;;52.00;34.50;;;;;;;-0.28;100.00;100239.40;428680;1271;142392;-68
2022/12/03 23:28:38;;;;;;;59.70;34.10;;;;;;;-0.29;100.00;100240.95;421598;1282;143528;-68
2022/12/03 23:38:44;;;;;;;56.70;33.20;;;;;;;-0.31;100.00;100240.80;431147;1288;143170;-65
2022/12/03 23:48:50;;;;;;;56.60;31.60;;;;;;;-0.32;100.00;100234.96;436325;1280;207142;-65
2022/12/03 23:58:57;;;;;;;52.60;31.80;;;;;;;-0.32;100.00;100245.98;433097;1275;142892;-65
